Maupin, OR

2:07 AM PDT on October 20, 2014 (GMT -0700)
RAWS HEHE 1 OR US | Change Station
CLOSE
Current Station
Personal Weather Station
Location: Maupin, OR
Elevation: 2679 ft
Nearby Weather Stations

Elev 2679 ft 44.96 °N, 121.50 °W | Updated 43 minutes ago

Clear
Clear
47 °F
Feels Like 44 °F
N
7
Wind Variable Wind from West
Gusts 9.0 mph

Today
High -- | Low -- °F
--% Chance of Precip.
Yesterday
High -- | Low -- °F
Precip. -- in
7:28 AM 6:11 PM
Waning Crescent, 12% visible
Pressure 29.73 in
Visibility 10.0 miles
Clouds Clear
Windchill 44 °F
Dew Point 44 °F
Humidity 89%
Rainfall 0.00 in
Snow Depth Not available.
UV 0 out of 12
Pollen 1.90 out of 12
Air Quality Not available.
Flu Activity Sporadic
METAR KRDM 200856Z AUTO 19009KT 10SM CLR 12/03 A2979 RMK AO2 SLP066 T01220033 53002

More Conditions Fewer Conditions

Pressure 29.73 in
Visibility 10.0 miles
Clouds Clear
Windchill 44 °F
Dew Point 44 °F
Humidity 89%
Rainfall 0.00 in
Snow Depth Not available.
UV 0 out of 12
Pollen 1.90 out of 12
Air Quality Not available.
Flu Activity Sporadic
METAR KRDM 200856Z AUTO 19009KT 10SM CLR 12/03 A2979 RMK AO2 SLP066 T01220033 53002

More Conditions Fewer Conditions

10-Day Weather Forecast

Almanac

Astronomy

Oct. 20, 2014 Rise Set
Actual Time 7:28 AM PDT 6:11 PM PDT
Civil Twilight 6:58 AM PDT 6:41 PM PDT
Nautical Twilight 6:23 AM PDT 7:15 PM PDT
Astronomical Twilight 5:49 AM PDT 7:49 PM PDT
Moon 4:13 AM PDT 4:44 PM PDT
Length of Visible Light 11h 43m
Length of Day
10h 43m
Waning Crescent, 12% of the Moon is Illuminated
Today
Waning Crescent
Oct 23
New
Oct 30
First Quarter
Nov 6
Full
Nov 14
Last Quarter

Today's Extremes

State Highs State Lows

Community

WunderPhotos

Upload Photos

1,763,316 photos uploaded!

Nearby

Snow Depth

Station Depth Elevation
Clackamas Lake 0 in 3400 ft
Clear Lake 1 in 3500 ft
Peavine Ridge 0 in 3500 ft
Red Hill 0 in 4400 ft
Greenpoint 0 in 3200 ft

Earthquake Activity

City Distance Mag. Time & Date
No recent earthquake activity has been reported nearby.
Minimum magnitude displayed is 2.5.

Coastal Water Temperatures

Place Temperature
No Stations Reporting

Nearby Weather Stations